Time;durP1;ratioP1;P1;durP2;ratioP2;P2;SDS_P1;SDS_P2;PMS_P1;PMS_P2;Temp;Humidity;BMP_temperature;BMP_pressure;BME280_temperature;BME280_humidity;BME280_pressure;Samples;Min_cycle;Max_cycle;Signal;HPM_P1;HPM_P2
2023/04/27 00:02:13;;;;;;;8.68;4.65;;;;;;;4.88;53.12;98644.56;5015765;28;20022;-69
2023/04/27 00:04:38;;;;;;;11.95;4.57;;;;;;;4.84;52.57;98648.88;5010874;28;20045;-68
2023/04/27 00:07:03;;;;;;;8.73;4.88;;;;;;;4.80;53.06;98642.28;5010991;28;20064;-69
2023/04/27 00:09:29;;;;;;;9.15;4.82;;;;;;;4.77;53.35;98640.88;5010816;28;20037;-69
2023/04/27 00:11:54;;;;;;;7.70;4.10;;;;;;;4.76;53.68;98646.59;4992962;28;20516;-68
2023/04/27 00:14:20;;;;;;;9.50;4.63;;;;;;;4.72;53.56;98645.44;5010659;28;20454;-69
2023/04/27 00:16:46;;;;;;;9.38;4.53;;;;;;;4.67;53.19;98645.38;5011061;28;20071;-69
2023/04/27 00:19:12;;;;;;;7.88;3.92;;;;;;;4.65;53.25;98642.09;5020437;28;20086;-68
2023/04/27 00:21:38;;;;;;;8.80;4.13;;;;;;;4.65;53.51;98640.22;5008363;28;20514;-68
2023/04/27 00:24:04;;;;;;;9.23;4.45;;;;;;;4.65;53.18;98640.22;5010587;28;20053;-68
2023/04/27 00:26:29;;;;;;;9.50;4.60;;;;;;;4.65;53.76;98636.66;5011336;28;20014;-68
2023/04/27 00:28:55;;;;;;;10.77;4.03;;;;;;;4.63;53.74;98636.94;5011579;28;20384;-68
2023/04/27 00:31:20;;;;;;;7.97;4.22;;;;;;;4.63;53.66;98645.06;5011723;28;20064;-69
2023/04/27 00:33:45;;;;;;;8.73;4.10;;;;;;;4.64;54.13;98644.00;4993936;28;20022;-69
2023/04/27 00:36:11;;;;;;;9.82;3.83;;;;;;;4.67;54.29;98643.50;5012764;28;20066;-68
2023/04/27 00:38:36;;;;;;;9.85;4.88;;;;;;;4.65;54.02;98634.78;5019456;28;20082;-68
2023/04/27 00:41:02;;;;;;;8.35;4.28;;;;;;;4.67;54.13;98639.94;5011196;28;20022;-68
2023/04/27 00:43:28;;;;;;;8.43;4.38;;;;;;;4.68;53.71;98642.44;5011293;28;20078;-69
2023/04/27 00:45:53;;;;;;;8.32;4.30;;;;;;;4.66;54.28;98639.16;5010604;28;20476;-68
2023/04/27 00:48:19;;;;;;;10.18;4.53;;;;;;;4.66;54.42;98647.28;5011060;28;20057;-68
2023/04/27 00:50:44;;;;;;;10.70;4.68;;;;;;;4.69;53.97;98646.75;5011184;28;20028;-68
2023/04/27 00:53:10;;;;;;;13.00;5.15;;;;;;;4.72;54.32;98651.69;5011626;28;20098;-68
2023/04/27 00:55:36;;;;;;;12.13;5.20;;;;;;;4.72;54.29;98643.53;5011372;28;20036;-69
2023/04/27 00:58:01;;;;;;;10.88;4.63;;;;;;;4.73;54.54;98652.53;4993639;28;20042;-69
2023/04/27 01:00:27;;;;;;;10.32;4.55;;;;;;;4.71;54.59;98650.03;5011131;28;20026;-69
2023/04/27 01:02:52;;;;;;;8.98;4.60;;;;;;;4.70;54.13;98647.59;5010506;28;20022;-69
2023/04/27 01:05:18;;;;;;;9.93;4.82;;;;;;;4.70;54.09;98650.31;5011603;28;20017;-69
2023/04/27 01:07:44;;;;;;;10.50;4.93;;;;;;;4.70;54.38;98645.69;4993825;28;20101;-68
2023/04/27 01:10:10;;;;;;;9.18;4.78;;;;;;;4.73;54.88;98647.91;5027263;28;20412;-68
2023/04/27 01:12:36;;;;;;;10.98;5.03;;;;;;;4.74;54.41;98651.44;4993504;28;20037;-68
2023/04/27 01:15:02;;;;;;;9.20;4.50;;;;;;;4.75;54.35;98653.91;4988776;28;20030;-69
2023/04/27 01:17:27;;;;;;;10.27;4.85;;;;;;;4.73;55.00;98656.06;5010394;28;20026;-68
2023/04/27 01:19:54;;;;;;;9.43;4.93;;;;;;;4.75;54.79;98661.25;5010383;28;20037;-68
2023/04/27 01:22:20;;;;;;;11.75;4.90;;;;;;;4.76;55.12;98657.47;5009423;28;20022;-68
2023/04/27 01:24:46;;;;;;;7.65;4.72;;;;;;;4.79;55.03;98661.56;5006899;28;20034;-68
2023/04/27 01:27:12;;;;;;;11.32;5.00;;;;;;;4.79;54.45;98667.00;5020945;28;20136;-68
2023/04/27 01:29:39;;;;;;;9.50;4.80;;;;;;;4.79;55.36;98656.97;5010592;28;20083;-68
2023/04/27 01:32:05;;;;;;;11.00;5.65;;;;;;;4.81;54.42;98662.13;5010871;28;20017;-68
2023/04/27 01:34:30;;;;;;;11.73;5.05;;;;;;;4.82;54.82;98661.88;5010705;28;20018;-68
2023/04/27 01:36:56;;;;;;;8.77;4.50;;;;;;;4.85;55.24;98668.69;5010584;28;20498;-69
2023/04/27 01:39:21;;;;;;;9.57;5.50;;;;;;;4.83;54.92;98662.69;5010789;28;20048;-68
2023/04/27 01:41:47;;;;;;;9.25;4.90;;;;;;;4.81;54.70;98662.97;5010407;28;20053;-68
2023/04/27 01:44:12;;;;;;;9.52;4.85;;;;;;;4.82;55.46;98661.06;5010608;28;20443;-68
2023/04/27 01:46:37;;;;;;;10.77;5.53;;;;;;;4.82;55.38;98653.72;5011060;28;20029;-69
2023/04/27 01:49:03;;;;;;;10.52;5.07;;;;;;;4.83;55.50;98659.97;5010390;28;20519;-68
2023/04/27 01:51:28;;;;;;;11.82;4.80;;;;;;;4.84;55.70;98658.91;5010482;28;20079;-68
2023/04/27 01:53:54;;;;;;;8.80;4.53;;;;;;;4.83;55.78;98660.81;4992677;28;20042;-69
2023/04/27 01:56:19;;;;;;;9.90;4.90;;;;;;;4.84;54.94;98664.34;5010739;28;20383;-68
2023/04/27 01:58:45;;;;;;;8.77;4.32;;;;;;;4.84;55.39;98658.91;5010315;28;20072;-68
2023/04/27 02:01:10;;;;;;;10.00;5.07;;;;;;;4.85;55.84;98663.25;5010334;28;20033;-68
2023/04/27 02:03:36;;;;;;;9.70;5.30;;;;;;;4.87;55.02;98664.66;5021623;28;20049;-68
2023/04/27 02:06:01;;;;;;;9.85;4.90;;;;;;;4.87;55.78;98667.38;5010299;28;20025;-68
2023/04/27 02:08:26;;;;;;;8.30;4.90;;;;;;;4.89;55.17;98670.66;5010035;28;20045;-69
2023/04/27 02:10:52;;;;;;;11.52;4.90;;;;;;;4.92;55.44;98669.31;5010225;28;20022;-69
2023/04/27 02:13:17;;;;;;;12.02;5.22;;;;;;;4.94;55.66;98664.47;5010215;28;20104;-67
2023/04/27 02:15:42;;;;;;;10.63;5.78;;;;;;;4.91;55.24;98665.78;5009079;28;20028;-67
2023/04/27 02:18:08;;;;;;;10.20;5.28;;;;;;;4.90;55.19;98666.84;4976291;28;20017;-68
2023/04/27 02:20:33;;;;;;;11.05;5.25;;;;;;;4.91;55.99;98665.78;5022246;28;20108;-68
2023/04/27 02:22:59;;;;;;;10.38;5.05;;;;;;;4.91;55.31;98663.06;5009949;28;20022;-69
2023/04/27 02:25:25;;;;;;;11.13;6.18;;;;;;;4.93;55.72;98665.53;5009829;28;20059;-68
2023/04/27 02:27:51;;;;;;;11.20;5.22;;;;;;;4.95;55.94;98657.13;5009841;28;20026;-68
2023/04/27 02:30:16;;;;;;;11.30;5.30;;;;;;;4.96;55.84;98664.19;5010032;28;20074;-68
2023/04/27 02:32:42;;;;;;;8.80;4.80;;;;;;;4.98;55.74;98662.03;5010326;28;20389;-68
2023/04/27 02:35:08;;;;;;;9.60;5.60;;;;;;;4.99;55.84;98658.25;5014652;28;20026;-67
2023/04/27 02:37:34;;;;;;;9.82;4.63;;;;;;;5.00;55.75;98660.72;5009956;28;20022;-68
2023/04/27 02:39:59;;;;;;;9.95;4.35;;;;;;;5.01;55.52;98656.94;5010233;28;20030;-68
2023/04/27 02:42:25;;;;;;;12.15;4.60;;;;;;;5.00;55.86;98659.91;5010033;28;20467;-68
2023/04/27 02:44:50;;;;;;;12.57;5.13;;;;;;;5.02;56.15;98660.47;5009895;28;20025;-68
2023/04/27 02:47:16;;;;;;;12.10;5.43;;;;;;;4.99;55.49;98658.25;5009482;28;20068;-68
2023/04/27 02:49:42;;;;;;;9.82;5.70;;;;;;;4.98;55.13;98656.59;5009577;28;20037;-68
2023/04/27 02:52:07;;;;;;;9.48;4.95;;;;;;;4.98;55.45;98667.47;5009660;28;20028;-68
2023/04/27 02:54:33;;;;;;;8.20;4.85;;;;;;;4.97;55.90;98658.53;5009543;28;20061;-69
2023/04/27 02:57:00;;;;;;;8.52;4.93;;;;;;;4.99;55.79;98659.09;5022480;28;20471;-68
2023/04/27 02:59:25;;;;;;;11.05;5.22;;;;;;;4.99;55.65;98669.97;5009458;28;20038;-68
2023/04/27 03:01:51;;;;;;;10.07;5.10;;;;;;;4.98;55.16;98667.47;5009392;28;20381;-68
2023/04/27 03:04:17;;;;;;;11.63;5.15;;;;;;;4.95;55.70;98671.53;5009151;28;20070;-68
2023/04/27 03:06:43;;;;;;;9.82;4.75;;;;;;;4.93;55.46;98673.69;5009558;28;20021;-68
2023/04/27 03:09:09;;;;;;;10.52;4.60;;;;;;;4.91;55.33;98676.66;5005343;28;20057;-68
2023/04/27 03:11:35;;;;;;;8.57;4.95;;;;;;;4.90;55.83;98672.28;5009362;28;20946;-68
2023/04/27 03:14:01;;;;;;;9.20;4.43;;;;;;;4.91;55.61;98673.13;5010171;28;20030;-68
2023/04/27 03:16:27;;;;;;;9.07;4.70;;;;;;;4.89;55.46;98680.72;5009260;28;20049;-68
2023/04/27 03:18:52;;;;;;;9.63;4.90;;;;;;;4.88;55.57;98682.63;5009149;28;20475;-69
2023/04/27 03:21:17;;;;;;;6.97;4.70;;;;;;;4.85;55.98;98677.69;5009047;28;20429;-68
2023/04/27 03:23:43;;;;;;;8.45;5.03;;;;;;;4.83;55.61;98679.00;5009563;28;20029;-69
2023/04/27 03:26:10;;;;;;;7.47;4.25;;;;;;;4.81;55.93;98683.88;5008737;28;20038;-68
2023/04/27 03:28:37;;;;;;;10.93;4.80;;;;;;;4.79;55.70;98683.28;5009519;28;20038;-69
2023/04/27 03:31:06;;;;;;;8.85;4.38;;;;;;;4.74;55.26;98687.59;5009101;28;20032;-68
2023/04/27 03:33:32;;;;;;;6.72;4.25;;;;;;;4.71;55.87;98692.72;5009155;28;20029;-68
2023/04/27 03:35:58;;;;;;;11.30;4.88;;;;;;;4.69;56.19;98689.44;5009064;28;20029;-68
2023/04/27 03:38:25;;;;;;;8.07;4.90;;;;;;;4.63;55.62;98691.25;5008951;28;20069;-68
2023/04/27 03:40:51;;;;;;;8.43;4.88;;;;;;;4.60;55.43;98698.00;5008801;28;20021;-68
2023/04/27 03:43:17;;;;;;;11.85;5.55;;;;;;;4.56;55.55;98696.06;5009137;28;20033;-68
2023/04/27 03:45:42;;;;;;;12.65;5.80;;;;;;;4.53;56.22;98701.97;5010095;28;20018;-68
2023/04/27 03:48:07;;;;;;;14.07;6.00;;;;;;;4.50;55.90;98700.56;5008545;28;20073;-69
2023/04/27 03:50:33;;;;;;;13.80;5.57;;;;;;;4.49;55.51;98700.84;5008880;28;20464;-69
2023/04/27 03:52:58;;;;;;;12.38;5.38;;;;;;;4.47;56.33;98698.38;5008604;28;20053;-68
2023/04/27 03:55:24;;;;;;;11.77;5.78;;;;;;;4.46;55.98;98705.69;5008735;28;20081;-68
2023/04/27 03:57:50;;;;;;;10.35;4.97;;;;;;;4.46;56.64;98711.13;4991020;28;20435;-68
2023/04/27 04:00:15;;;;;;;19.15;6.97;;;;;;;4.44;56.02;98705.13;5016372;28;20124;-68
2023/04/27 04:02:41;;;;;;;16.23;6.03;;;;;;;4.43;56.53;98708.91;5015716;28;20065;-69
2023/04/27 04:05:07;;;;;;;15.75;6.53;;;;;;;4.44;56.67;98707.03;5008398;28;20046;-68
2023/04/27 04:07:33;;;;;;;17.67;7.25;;;;;;;4.45;55.96;98705.97;4990985;28;20022;-68
2023/04/27 04:09:58;;;;;;;18.58;6.82;;;;;;;4.46;56.08;98715.75;5008658;28;20079;-68
2023/04/27 04:12:24;;;;;;;40.95;16.75;;;;;;;4.45;56.67;98714.09;5008553;28;20083;-68
2023/04/27 04:14:50;;;;;;;29.17;9.90;;;;;;;4.47;56.57;98717.41;5008473;28;20038;-68
2023/04/27 04:17:15;;;;;;;32.80;9.88;;;;;;;4.49;56.61;98720.66;4990679;28;20062;-68
2023/04/27 04:19:41;;;;;;;33.40;11.02;;;;;;;4.49;56.59;98715.22;5008350;28;20053;-69
2023/04/27 04:22:07;;;;;;;19.67;7.68;;;;;;;4.52;56.81;98716.63;5008508;28;20583;-68
2023/04/27 04:24:32;;;;;;;16.20;6.65;;;;;;;4.53;56.28;98721.00;5008413;28;20392;-67
2023/04/27 04:26:57;;;;;;;13.68;6.88;;;;;;;4.55;57.19;98721.56;5008308;28;20026;-69
2023/04/27 04:29:24;;;;;;;19.25;7.85;;;;;;;4.56;57.10;98729.47;4990658;28;20030;-69
2023/04/27 04:31:50;;;;;;;25.83;11.27;;;;;;;4.56;57.03;98724.03;5008282;28;20053;-68
2023/04/27 04:34:15;;;;;;;21.77;9.85;;;;;;;4.60;56.72;98732.50;5015073;28;20061;-68
2023/04/27 04:36:40;;;;;;;16.92;7.82;;;;;;;4.61;57.28;98732.25;5019980;28;20067;-68
2023/04/27 04:39:06;;;;;;;17.67;9.27;;;;;;;4.66;57.53;98730.69;5010616;28;20514;-68
2023/04/27 04:41:32;;;;;;;20.35;9.55;;;;;;;4.70;57.58;98734.53;5011405;28;20022;-68
2023/04/27 04:43:57;;;;;;;18.67;9.02;;;;;;;4.73;56.84;98740.28;5011533;28;20518;-68
2023/04/27 04:46:23;;;;;;;23.42;9.32;;;;;;;4.77;57.17;98736.00;5011649;28;20078;-68
2023/04/27 04:48:49;;;;;;;21.77;8.48;;;;;;;4.83;56.99;98742.34;5012123;28;20040;-68
2023/04/27 04:51:15;;;;;;;19.67;7.93;;;;;;;4.89;57.61;98745.94;5012219;28;20037;-68
2023/04/27 04:53:41;;;;;;;13.73;6.95;;;;;;;4.94;57.40;98743.28;5012970;28;20030;-68
2023/04/27 04:56:13;;;;;;;14.25;7.30;;;;;;;4.97;57.54;98747.38;5012221;28;20038;-68
2023/04/27 04:58:39;;;;;;;19.83;10.07;;;;;;;5.03;57.37;98749.09;5077507;28;20374;-69
2023/04/27 05:01:05;;;;;;;11.88;6.72;;;;;;;5.09;57.51;98750.00;5026815;28;20128;-68
2023/04/27 05:03:31;;;;;;;13.00;7.10;;;;;;;5.15;57.24;98752.53;5010869;28;20038;-68
2023/04/27 05:05:56;;;;;;;15.18;8.20;;;;;;;5.22;57.66;98753.16;5011028;28;20361;-68
2023/04/27 05:08:21;;;;;;;15.68;7.50;;;;;;;5.29;56.90;98752.16;5010590;28;20045;-68
2023/04/27 05:10:51;;;;;;;15.38;7.10;;;;;;;5.36;57.39;98753.59;5010944;28;20021;-68
2023/04/27 05:13:16;;;;;;;12.65;6.38;;;;;;;5.44;56.90;98756.94;5012633;28;20037;-69
2023/04/27 05:15:42;;;;;;;12.55;6.30;;;;;;;5.54;57.05;98767.09;4993371;28;20050;-68
2023/04/27 05:18:07;;;;;;;13.55;6.88;;;;;;;5.60;57.40;98764.16;5010948;28;20028;-68
2023/04/27 05:20:37;;;;;;;11.00;6.13;;;;;;;5.68;57.20;98765.63;5011019;28;20014;-69
2023/04/27 05:23:02;;;;;;;12.93;6.30;;;;;;;5.76;57.31;98767.88;5011237;28;20037;-68
2023/04/27 05:25:32;;;;;;;10.50;6.18;;;;;;;5.81;57.22;98765.19;5011052;28;20372;-68
2023/04/27 05:27:57;;;;;;;11.20;5.80;;;;;;;5.86;57.14;98769.03;5021671;28;20070;-68
2023/04/27 05:30:23;;;;;;;12.07;6.07;;;;;;;5.92;56.66;98768.81;5010886;28;20054;-68
2023/04/27 05:32:48;;;;;;;12.60;5.85;;;;;;;6.00;56.48;98772.16;5009649;28;20494;-69
2023/04/27 05:35:13;;;;;;;11.35;6.03;;;;;;;6.04;56.92;98776.88;4994823;28;20026;-69
2023/04/27 05:37:39;;;;;;;10.63;5.40;;;;;;;6.05;56.43;98778.53;5060217;28;20465;-68
2023/04/27 05:40:08;;;;;;;12.65;5.72;;;;;;;6.06;56.48;98772.00;5115375;28;20076;-69
2023/04/27 05:42:33;;;;;;;10.68;4.93;;;;;;;6.08;56.28;98782.63;5109236;28;20068;-68
2023/04/27 05:44:58;;;;;;;10.48;5.50;;;;;;;6.11;56.56;98779.38;5015595;28;20033;-68
2023/04/27 05:47:24;;;;;;;9.93;5.97;;;;;;;6.11;55.93;98784.84;5013699;28;20386;-68
2023/04/27 05:49:51;;;;;;;11.52;5.97;;;;;;;6.11;55.95;98782.09;5010331;28;20037;-68
2023/04/27 05:52:17;;;;;;;12.18;5.60;;;;;;;6.16;55.89;98786.78;5010157;28;20032;-69
2023/04/27 05:54:48;;;;;;;11.90;6.05;;;;;;;6.15;56.02;98794.13;5010743;28;20018;-68
2023/04/27 05:57:14;;;;;;;14.82;6.22;;;;;;;6.17;55.56;98799.31;5010667;28;20025;-68
2023/04/27 05:59:41;;;;;;;11.50;5.32;;;;;;;6.21;56.01;98795.00;5010608;28;20030;-67
2023/04/27 06:02:06;;;;;;;8.57;4.82;;;;;;;6.21;55.60;98797.72;5010766;28;20379;-68
2023/04/27 06:04:32;;;;;;;12.75;5.05;;;;;;;6.23;55.68;98799.13;5009649;28;20038;-67
2023/04/27 06:06:59;;;;;;;9.15;4.88;;;;;;;6.26;55.56;98795.03;5011285;28;20042;-68
2023/04/27 06:09:24;;;;;;;9.73;5.40;;;;;;;6.30;55.46;98809.78;5009896;28;20091;-68
2023/04/27 06:11:50;;;;;;;14.48;5.38;;;;;;;6.35;55.53;98801.66;5010599;28;20044;-67
2023/04/27 06:14:16;;;;;;;10.27;4.75;;;;;;;6.38;55.29;98800.31;4991849;28;20040;-67
2023/04/27 06:16:42;;;;;;;11.05;5.10;;;;;;;6.45;55.12;98805.56;5018392;28;20393;-67
2023/04/27 06:19:08;;;;;;;9.48;4.30;;;;;;;6.54;54.94;98798.50;5010157;28;20105;-68
2023/04/27 06:21:34;;;;;;;7.03;4.32;;;;;;;6.60;55.08;98796.66;5010228;28;20030;-68
2023/04/27 06:24:01;;;;;;;9.60;4.70;;;;;;;6.67;55.28;98798.06;5009882;28;20434;-67
2023/04/27 06:26:27;;;;;;;7.90;4.00;;;;;;;6.73;54.49;98795.38;5009961;28;20527;-68
2023/04/27 06:28:53;;;;;;;8.18;4.00;;;;;;;6.77;54.77;98796.50;5009718;28;20050;-68
2023/04/27 06:31:18;;;;;;;13.63;6.50;;;;;;;6.82;54.03;98800.06;5009978;28;20034;-68
2023/04/27 06:33:44;;;;;;;8.90;4.63;;;;;;;6.86;54.35;98803.13;5021507;28;20479;-68
2023/04/27 06:36:09;;;;;;;8.38;4.35;;;;;;;6.89;54.22;98801.75;5009059;28;20025;-69
2023/04/27 06:38:35;;;;;;;14.13;5.80;;;;;;;6.92;54.26;98806.69;5010446;28;20030;-68
2023/04/27 06:41:00;;;;;;;9.00;4.32;;;;;;;6.93;53.47;98814.59;5009791;28;20143;-67
2023/04/27 06:43:25;;;;;;;14.63;5.50;;;;;;;6.95;53.61;98811.59;4993727;28;20936;-67
2023/04/27 06:45:51;;;;;;;10.32;4.22;;;;;;;6.97;53.62;98815.69;5009927;28;20029;-67
2023/04/27 06:48:16;;;;;;;11.15;5.18;;;;;;;7.04;53.69;98820.94;5030433;28;20030;-67
2023/04/27 06:50:42;;;;;;;9.82;4.43;;;;;;;7.09;53.50;98809.22;5023285;28;20088;-68
2023/04/27 06:53:08;;;;;;;9.07;3.80;;;;;;;7.13;53.31;98815.78;5010324;28;20097;-67
2023/04/27 06:55:34;;;;;;;5.95;3.78;;;;;;;7.18;53.16;98818.56;5006328;28;20438;-68
2023/04/27 06:58:02;;;;;;;7.40;3.20;;;;;;;7.25;52.78;98826.50;5009091;28;20029;-69
2023/04/27 07:00:27;;;;;;;8.43;3.72;;;;;;;7.28;53.06;98817.78;5007329;28;20034;-69
2023/04/27 07:02:53;;;;;;;7.38;4.10;;;;;;;7.30;52.06;98812.88;4990624;28;20038;-69
2023/04/27 07:05:18;;;;;;;6.75;3.10;;;;;;;7.32;52.23;98818.91;5008606;28;20109;-68
2023/04/27 07:07:43;;;;;;;6.38;3.30;;;;;;;7.35;51.69;98814.78;5008069;28;20357;-69
2023/04/27 07:10:09;;;;;;;7.43;3.55;;;;;;;7.36;51.83;98819.16;5008978;28;20029;-69
2023/04/27 07:12:36;;;;;;;7.43;3.22;;;;;;;7.38;51.71;98817.84;4991301;28;20026;-66
2023/04/27 07:15:03;;;;;;;7.03;3.63;;;;;;;7.42;51.83;98816.22;5007649;28;20079;-68
2023/04/27 07:17:28;;;;;;;5.93;2.85;;;;;;;7.47;51.34;98815.41;5008901;28;20034;-68
2023/04/27 07:19:55;;;;;;;8.60;3.63;;;;;;;7.56;51.54;98807.50;5008147;28;20030;-70
2023/04/27 07:22:21;;;;;;;6.13;3.20;;;;;;;7.71;51.38;98809.50;5008626;28;20021;-69
2023/04/27 07:24:46;;;;;;;7.03;3.47;;;;;;;7.81;51.22;98808.69;4998623;28;20052;-69
2023/04/27 07:27:12;;;;;;;7.18;2.92;;;;;;;7.88;50.91;98810.06;5011232;28;20026;-68
2023/04/27 07:29:38;;;;;;;5.53;3.08;;;;;;;7.96;50.43;98810.63;5008778;28;20038;-69
2023/04/27 07:32:07;;;;;;;9.18;3.50;;;;;;;8.03;51.17;98806.53;5008347;28;20040;-69
2023/04/27 07:34:33;;;;;;;6.35;3.22;;;;;;;8.09;50.55;98801.94;5008051;28;20056;-68
2023/04/27 07:37:00;;;;;;;7.97;3.35;;;;;;;8.13;49.99;98811.22;5009106;28;20034;-68
2023/04/27 07:39:26;;;;;;;7.15;3.30;;;;;;;8.13;50.21;98805.75;4999128;28;20022;-68
2023/04/27 07:41:51;;;;;;;8.00;3.20;;;;;;;8.12;50.18;98808.75;5024962;28;20030;-68
2023/04/27 07:44:18;;;;;;;7.53;4.03;;;;;;;8.11;49.54;98804.38;5001002;28;20105;-68
2023/04/27 07:46:43;;;;;;;5.60;3.20;;;;;;;8.13;49.50;98810.38;5007512;28;20026;-69
2023/04/27 07:49:09;;;;;;;6.82;3.25;;;;;;;8.13;49.58;98808.50;5008453;28;20076;-68
2023/04/27 07:51:35;;;;;;;8.15;3.15;;;;;;;8.16;49.86;98812.56;5007991;28;20066;-68
2023/04/27 07:54:01;;;;;;;7.78;3.20;;;;;;;8.27;49.73;98816.13;5017316;28;20028;-68
2023/04/27 07:56:26;;;;;;;7.72;3.60;;;;;;;8.38;49.65;98803.28;5007892;28;20045;-68
2023/04/27 07:58:52;;;;;;;18.45;6.25;;;;;;;8.52;49.31;98809.09;5008387;28;20568;-69
2023/04/27 08:01:17;;;;;;;24.25;9.57;;;;;;;8.69;49.51;98806.88;5007592;28;20097;-69
2023/04/27 08:03:43;;;;;;;7.78;4.15;;;;;;;8.82;49.40;98800.00;5007571;28;20130;-68
2023/04/27 08:06:08;;;;;;;8.38;3.83;;;;;;;8.93;49.27;98792.63;5019270;28;20083;-67
2023/04/27 08:08:33;;;;;;;10.98;3.97;;;;;;;9.05;49.42;98806.78;5010514;28;20053;-67
2023/04/27 08:10:59;;;;;;;6.72;3.35;;;;;;;9.13;48.88;98805.44;5008218;28;20035;-68
2023/04/27 08:13:24;;;;;;;7.63;3.70;;;;;;;9.20;48.77;98792.25;5010177;28;20476;-67
2023/04/27 08:15:50;;;;;;;7.82;3.67;;;;;;;9.23;47.45;98796.34;5020688;28;20034;-67
2023/04/27 08:18:16;;;;;;;8.38;3.65;;;;;;;9.23;47.79;98808.09;5010892;28;20026;-66
2023/04/27 08:20:42;;;;;;;4.90;2.85;;;;;;;9.22;46.49;98801.00;5010729;28;20034;-67
2023/04/27 08:23:08;;;;;;;8.27;3.08;;;;;;;9.23;47.25;98807.31;5014157;28;20038;-68
2023/04/27 08:25:35;;;;;;;6.50;3.10;;;;;;;9.23;46.44;98810.84;5011300;28;20022;-67
2023/04/27 08:28:01;;;;;;;10.02;3.80;;;;;;;9.25;47.44;98813.31;5017540;28;20358;-68
2023/04/27 08:30:26;;;;;;;12.85;4.72;;;;;;;9.26;46.85;98808.66;5018799;28;20041;-67
2023/04/27 08:32:53;;;;;;;10.50;3.65;;;;;;;9.29;46.86;98817.13;5016672;28;20060;-68
2023/04/27 08:35:18;;;;;;;13.05;4.85;;;;;;;9.32;46.61;98818.50;5023286;28;20030;-68
2023/04/27 08:37:44;;;;;;;26.70;7.10;;;;;;;9.32;45.37;98813.84;5010875;28;20052;-69
2023/04/27 08:40:10;;;;;;;17.70;5.35;;;;;;;9.32;46.01;98813.00;5011025;28;20033;-68
2023/04/27 08:42:36;;;;;;;7.85;3.50;;;;;;;9.31;45.24;98823.16;5010169;28;20032;-68
2023/04/27 08:45:03;;;;;;;6.60;3.70;;;;;;;9.27;45.23;98816.59;5019719;28;20102;-68
2023/04/27 08:47:29;;;;;;;11.88;4.55;;;;;;;9.29;44.69;98825.34;5012668;28;20033;-68
2023/04/27 08:49:54;;;;;;;11.40;5.32;;;;;;;9.29;45.29;98824.50;5033528;28;20038;-68
2023/04/27 08:52:20;;;;;;;9.52;4.32;;;;;;;9.32;45.63;98815.75;5010067;28;20026;-68
2023/04/27 08:54:45;;;;;;;8.32;3.40;;;;;;;9.36;45.09;98816.84;5011258;28;20021;-68
2023/04/27 08:57:12;;;;;;;13.32;4.45;;;;;;;9.42;45.59;98823.09;5011402;28;20480;-68
2023/04/27 08:59:39;;;;;;;8.30;3.50;;;;;;;9.47;45.05;98818.44;5011079;28;20026;-67
2023/04/27 09:02:05;;;;;;;6.65;3.20;;;;;;;9.58;45.86;98815.66;5014520;28;20034;-68
2023/04/27 09:04:40;;;;;;;4.40;2.90;;;;;;;9.69;45.59;98814.50;5007879;28;20074;-67
2023/04/27 09:07:25;;;;;;;6.10;2.95;;;;;;;9.85;45.84;98819.91;5024378;28;20045;-67
2023/04/27 09:10:02;;;;;;;4.75;2.70;;;;;;;9.98;45.03;98822.03;5010262;28;20037;-68
2023/04/27 09:12:27;;;;;;;6.03;3.50;;;;;;;10.01;45.16;98810.47;5007329;28;20045;-67
2023/04/27 09:15:05;;;;;;;9.32;4.10;;;;;;;10.06;45.06;98826.09;5013038;28;20484;-68
2023/04/27 09:17:32;;;;;;;5.25;2.90;;;;;;;10.10;45.42;98811.50;5009621;28;20530;-67
2023/04/27 09:20:12;;;;;;;6.95;3.50;;;;;;;10.09;44.81;98818.09;5010369;28;20028;-67
2023/04/27 09:22:48;;;;;;;;;;;;;;;10.11;44.64;98817.81;4992735;28;20030;-66
2023/04/27 09:25:27;;;;;;;7.50;3.50;;;;;;;10.08;43.51;98810.97;5006261;28;19921;-67
2023/04/27 09:27:53;;;;;;;5.90;2.83;;;;;;;10.06;44.38;98820.59;5012435;28;20032;-68
2023/04/27 09:30:19;;;;;;;6.03;3.03;;;;;;;10.03;43.86;98821.16;5010127;28;20033;-68
2023/04/27 09:33:00;;;;;;;5.97;3.22;;;;;;;9.99;44.01;98815.41;5010260;28;20022;-67
2023/04/27 09:35:30;;;;;;;6.88;3.15;;;;;;;10.04;44.63;98822.81;5006855;28;20037;-68
2023/04/27 09:37:56;;;;;;;6.90;3.63;;;;;;;10.09;44.33;98814.56;5011220;28;20109;-68
2023/04/27 09:40:29;;;;;;;4.18;2.30;;;;;;;10.18;43.57;98825.72;5010320;28;20030;-68
2023/04/27 09:42:56;;;;;;;7.53;2.67;;;;;;;10.19;43.06;98827.38;5010689;28;20033;-67
2023/04/27 09:45:25;;;;;;;11.52;4.15;;;;;;;10.16;43.15;98826.03;5009268;28;20030;-68
2023/04/27 09:47:51;;;;;;;8.95;3.85;;;;;;;10.20;42.13;98826.25;5018189;28;20038;-69
2023/04/27 09:50:16;;;;;;;7.38;3.03;;;;;;;10.22;43.03;98826.78;5017114;28;20129;-68
2023/04/27 09:52:42;;;;;;;5.93;2.83;;;;;;;10.24;41.74;98822.66;5009130;28;20128;-67
2023/04/27 09:55:11;;;;;;;8.52;4.25;;;;;;;10.26;41.97;98825.13;5009955;28;20147;-68
2023/04/27 09:57:49;;;;;;;5.95;3.13;;;;;;;10.28;40.62;98817.44;5009244;28;20068;-66
2023/04/27 10:00:25;;;;;;;5.40;3.40;;;;;;;10.31;42.31;98818.78;4991452;28;20479;-65
2023/04/27 10:03:28;;;;;;;6.07;3.10;;;;;;;10.37;42.03;98818.47;5009583;28;20022;-67
2023/04/27 10:06:21;;;;;;;6.22;3.83;;;;;;;10.46;41.12;98817.88;5008022;28;20034;-65
2023/04/27 10:08:46;;;;;;;11.00;4.47;;;;;;;10.51;41.34;98820.56;5010266;28;20025;-65
2023/04/27 10:11:15;;;;;;;5.50;3.30;;;;;;;10.53;40.83;98819.19;5017024;28;20045;-66
2023/04/27 10:13:51;;;;;;;7.50;3.15;;;;;;;10.61;42.09;98825.97;5016226;28;20036;-66
2023/04/27 10:16:17;;;;;;;8.65;4.10;;;;;;;10.67;41.14;98811.13;5019154;28;20029;-65
2023/04/27 10:18:51;;;;;;;6.75;3.90;;;;;;;10.73;41.39;98817.38;5008075;28;20026;-65
2023/04/27 10:21:17;;;;;;;4.05;2.35;;;;;;;10.82;41.53;98814.81;5007745;28;20030;-65
2023/04/27 10:23:50;;;;;;;6.32;2.67;;;;;;;10.90;40.25;98811.44;5012521;28;20490;-65
2023/04/27 10:26:23;;;;;;;2.65;2.00;;;;;;;10.99;40.87;98814.38;5012535;28;20022;-64
2023/04/27 10:29:07;;;;;;;6.18;3.08;;;;;;;11.04;40.16;98813.50;5009710;28;20030;-65
2023/04/27 10:31:33;;;;;;;4.40;2.42;;;;;;;11.10;40.31;98809.59;5007909;28;20346;-66
2023/04/27 10:34:09;;;;;;;4.30;2.47;;;;;;;11.15;40.71;98809.56;5007574;28;20479;-67
2023/04/27 10:36:39;;;;;;;4.10;2.30;;;;;;;11.19;40.44;98805.13;5005399;28;20036;-65
2023/04/27 10:39:15;;;;;;;;;;;;;;;11.28;41.37;98811.56;5007896;28;20855;-65
2023/04/27 10:41:49;;;;;;;5.40;2.70;;;;;;;11.35;40.43;98810.41;5013888;28;19925;-65
2023/04/27 10:44:20;;;;;;;6.30;2.45;;;;;;;11.40;40.73;98813.94;5021036;28;20075;-64
2023/04/27 10:46:50;;;;;;;4.25;2.50;;;;;;;11.48;40.28;98812.47;5008207;28;20034;-65
2023/04/27 10:49:16;;;;;;;6.30;2.50;;;;;;;11.50;38.86;98818.47;5009754;28;20049;-65
2023/04/27 10:51:41;;;;;;;6.35;3.40;;;;;;;11.44;38.39;98814.97;5008305;28;20030;-67
2023/04/27 10:54:07;;;;;;;4.38;3.17;;;;;;;11.44;39.70;98819.66;5010158;28;20155;-66
2023/04/27 10:56:33;;;;;;;5.75;3.08;;;;;;;11.45;39.10;98816.59;4992459;28;20041;-67
2023/04/27 10:59:05;;;;;;;7.40;2.83;;;;;;;11.49;38.96;98821.50;5010095;28;20025;-67
2023/04/27 11:01:30;;;;;;;4.47;2.75;;;;;;;11.49;38.77;98813.25;5010231;28;20561;-66
2023/04/27 11:04:00;;;;;;;5.05;2.80;;;;;;;11.54;38.61;98811.28;5008707;28;20046;-66
2023/04/27 11:06:27;;;;;;;3.55;2.38;;;;;;;11.60;38.70;98812.88;5010155;28;20026;-66
2023/04/27 11:08:53;;;;;;;5.60;2.58;;;;;;;11.66;39.34;98816.34;5010424;28;20030;-66
2023/04/27 11:11:19;;;;;;;5.40;2.75;;;;;;;11.72;37.79;98822.59;5005882;28;20029;-64
2023/04/27 11:13:47;;;;;;;2.83;2.42;;;;;;;11.72;37.91;98819.84;5008353;28;20041;-65
2023/04/27 11:16:14;;;;;;;6.53;2.92;;;;;;;11.71;37.56;98818.19;5008548;28;20030;-65
2023/04/27 11:18:39;;;;;;;15.45;7.15;;;;;;;11.69;38.86;98817.69;5008228;28;20386;-67
2023/04/27 11:21:15;;;;;;;5.25;3.25;;;;;;;11.70;37.65;98816.56;5009466;28;20053;-66
2023/04/27 11:23:41;;;;;;;34.25;11.20;;;;;;;11.71;38.30;98808.03;5008802;28;20087;-65
2023/04/27 11:26:20;;;;;;;7.55;3.85;;;;;;;11.77;37.97;98819.78;5009091;28;20034;-65
2023/04/27 11:29:04;;;;;;;16.15;6.65;;;;;;;11.83;38.78;98815.84;4989956;28;20483;-65
2023/04/27 11:31:50;;;;;;;7.47;4.30;;;;;;;11.86;37.96;98826.25;5009100;28;20041;-64
2023/04/27 11:34:18;;;;;;;5.40;3.17;;;;;;;11.80;37.50;98821.13;5007895;28;20480;-65
2023/04/27 11:36:44;;;;;;;5.45;2.97;;;;;;;11.77;38.53;98806.03;4990705;28;20472;-66